URRP Airport Information

Runway Information
Airport Frequencies
Airport Navaids
Airport Weather Information & NOTAM
ADDS - METARS form results

(1659 UTC 17 August 2019)
Data provider http://aviationweather.gov/metar/data/
 
METAR text: URRP 171630Z 26003MPS CAVOK 25/18 Q1009 R23/CLRD70 NOSIG RMK QFE749/0998
Conditions at: URRP (PLATOV , RU) observed 1630 UTC 17 August 2019
Temperature: 25.0°C (77°F)
Dewpoint: 18.0°C (64°F) [RH = 65%]
Pressure (altimeter): 29.79 inches Hg (1009.0 mb)
Winds: from the W (260 degrees) at 7 MPH (6 knots; 3.1 m/s)
Visibility: 6 or more miles (10+ km)
Ceiling: ceiling and visibility are OK
Clouds: unknown
Weather: no significant weather observed at this time

METAR text: URRP 171600Z 27003MPS CAVOK 26/18 Q1008 R23/CLRD70 NOSIG RMK QFE749/0998
Conditions at: URRP (PLATOV , RU) observed 1600 UTC 17 August 2019
Temperature: 26.0°C (79°F)
Dewpoint: 18.0°C (64°F) [RH = 61%]
Pressure (altimeter): 29.76 inches Hg (1008.0 mb)
Winds: from the W (270 degrees) at 7 MPH (6 knots; 3.1 m/s)
Visibility: 6 or more miles (10+ km)
Ceiling: ceiling and visibility are OK
Clouds: unknown
Weather: no significant weather observed at this time

Forecast for: URRP (PLATOV , RU)
Text: TAF URRP 171358Z 1715/1815 27003G08MPS 9999 SCT020CB TX30/1812Z TN19/1802Z
Forecast period: 1500 UTC 17 August 2019 to 1500 UTC 18 August 2019
Forecast type: FROM: standard forecast or significant change
Winds: from the W (270 degrees) at 7 MPH (6 knots; 3.1 m/s)
gusting to 18 MPH (16 knots; 8.2 m/s)
Visibility: 6 or more miles 10+ km)
Ceiling: at least 12,000 feet AGL
Clouds: scattered clouds at 2000 feet AGL
Weather: no significant weather forecast for this period
Text: TEMPO 1721/1807 01003MPS 3100 BR SCT011 SCT020CB
Forecast period: 2100 UTC 17 August 2019 to 0700 UTC 18 August 2019
Forecast type: TEMPORARY: The following changes expected for less than half the time period
Winds: from the N (10 degrees) at 7 MPH (6 knots; 3.1 m/s)
Visibility: 1.93 miles (3.11 km)
Ceiling: at least 12,000 feet AGL
Clouds: scattered clouds at 1100 feet AGL
scattered clouds at 2000 feet AGL
Weather: BR  (mist)
Text: PROB40
Forecast period: 1200 to 1500 UTC 18 August 2019
Forecast type: TEMPORARY: The following changes expected for less than half the time period
Visibility: missing
Ceiling: unknown
Clouds: missing
Weather: -TSRA  (light rain associated with thunderstorm(s))